Latest Coastal Weather Observations for Merimbula

IDN60701

Issued at 2:11 pm EST Wednesday 26 April 2017 (issued every 10 minutes, with the page automatically refreshed every 10 minutes)

About coastal observations | Map of coastal stations | Coastal observations for NSW | Marine services | Other Formats
Station Details ID: 069147 Name: MERIMBULA AIRPORT AWS Lat: -36.91 Lon: 149.90 Height: 1.5 m
Data from the previous 72 hours. | See also: Recent months at Merimbula
Date/Time
EST
Temp
°C
Wind Pressure Rain since
9am
mm
Weather Cloud Vis
km
Sea
Height
m
Swell
Dir  Spd
kts
Gust
kts
hPa Trend Height
m
Period
s
Dir
26/02:00pm 15.3 WSW 13 22 1004.6 - 0.0 - Partly cloudy 10 - - - -
26/01:30pm 15.4 WSW 13 23 1004.3 - 0.0 - Partly cloudy 10 - - - -
26/01:00pm 16.2 WSW 15 25 1003.9 - 0.0 - Partly cloudy 10 - - - -
26/12:56pm 16.0 WSW 15 25 1003.8 - 0.0 - Partly cloudy 10 - - - -
26/12:30pm 16.7 SSW 14 24 1003.6 - 0.0 - Partly cloudy 10 - - - -
26/12:15pm 17.7 SSW 9 24 1003.5 - 0.0 - Partly cloudy 10 - - - -
26/12:00pm 21.1 W 6 9 1002.9 - 0.0 - Cloudy 10 - - - -
26/11:30am 19.9 WSW 10 15 1003.0 - 0.0 - - 10 - - - -
26/11:00am 21.3 W 8 13 1002.8 - 0.0 - - 10 - - - -
26/10:30am 19.9 CALM 0 0 1003.0 - 0.0 - Partly cloudy 10 - - - -
26/10:00am 18.7 CALM 0 0 1003.0 - 0.0 - Partly cloudy 10 - - - -
26/09:30am 17.3 CALM 0 4 1003.0 - 0.0 - Partly cloudy 10 - - - -
26/09:00am 15.9 SSW 1 4 1003.5 - 3.0 - Cloudy 10 - - - -
26/08:30am 14.4 SSW 3 6 1003.7 - 3.0 - Partly cloudy 10 - - - -
26/08:00am 12.7 SSW 5 6 1003.8 - 3.0 - Partly cloudy 10 - - - -
26/07:30am 12.5 CALM 0 0 1003.9 - 3.0 - Partly cloudy 10 - - - -
26/07:00am 11.2 CALM 0 0 1003.7 - 3.0 - Partly cloudy 10 - - - -
26/06:30am 11.2 CALM 0 0 1003.4 - 3.0 - Partly cloudy 10 - - - -
26/06:00am 11.4 SW 2 6 1003.3 - 3.0 - - 10 - - - -
26/05:30am 11.6 CALM 0 0 1003.2 - 3.0 - Partly cloudy 10 - - - -
26/05:00am 12.3 CALM 0 0 1003.5 - 3.0 - Cloudy 10 - - - -
26/04:30am 12.2 CALM 0 0 1003.5 - 3.0 - Cloudy 10 - - - -
26/04:00am 11.9 CALM 0 0 1003.6 - 3.0 - Cloudy 10 - - - -
26/03:30am 12.2 CALM 0 0 1003.9 - 3.0 - Cloudy 10 - - - -
26/03:20am 12.1 CALM 0 0 1003.9 - 3.0 - Cloudy 10 - - - -
26/03:00am 11.0 CALM 0 0 1004.1 - 3.0 - Mostly clear 0.5 - - - -
26/02:30am 11.6 CALM 0 0 1004.3 - 3.0 - Partly cloudy 3 - - - -
26/02:00am 12.0 CALM 0 0 1004.4 - 3.0 - - 2 - - - -
26/01:56am 11.9 CALM 0 0 1004.5 - 3.0 - - 3 - - - -
26/01:53am 12.1 CALM 0 0 1004.5 - 3.0 - - 10 - - - -
26/01:30am 12.4 CALM 0 0 1004.6 - 3.0 - - 8 - - - -
26/01:00am 12.7 CALM 0 0 1004.7 - 3.0 - - 6 - - - -
26/12:58am 12.8 CALM 0 0 1004.7 - 3.0 - - 5 - - - -
26/12:36am 13.2 CALM 0 0 1004.9 - 3.0 - - 10 - - - -
26/12:30am 13.1 CALM 0 0 1004.9 - 3.0 - - 7 - - - -
26/12:18am 13.2 CALM 0 0 1004.7 - 3.0 - - 5 - - - -
26/12:00am 13.4 SSW 2 4 1004.9 - 3.0 - Partly cloudy 10 - - - -
 
Date/Time
EST
Temp
°C
Wind Pressure Rain since
9am
mm
Weather Cloud Vis
km
Sea
Height
m
Swell
Dir  Spd
kts
Gust
kts
hPa Trend Height
m
Period
s
Dir
25/11:47pm 13.6 SW 3 5 1005.1 - 3.0 - - 10 - - - -
25/11:30pm 13.4 CALM 0 0 1005.1 - 3.0 - - 4 - - - -
25/11:28pm 13.6 CALM 0 0 1005.1 - 3.0 - - 5 - - - -
25/11:00pm 14.1 CALM 0 0 1005.1 - 3.0 - - 10 - - - -
25/10:30pm 14.2 CALM 0 0 1005.2 - 3.0 - - 10 - - - -
25/10:00pm 14.3 SSW 5 7 1005.2 - 2.8 - - 10 - - - -
25/09:43pm 14.4 W 5 6 1005.3 - 2.8 - - 10 - - - -
25/09:30pm 14.7 WNW 1 4 1005.3 - 2.8 - - 2 - - - -
25/09:22pm 14.6 W 1 4 1005.4 - 2.8 - Partly cloudy 5 - - - -
25/09:19pm 14.6 W 2 5 1005.4 - 2.8 - Partly cloudy 8 - - - -
25/09:02pm 15.2 W 4 6 1005.5 - 2.8 - Partly cloudy 5 - - - -
25/09:00pm 15.3 W 5 6 1005.5 - 2.8 - Mostly cloudy 9 - - - -
25/08:30pm 15.8 WNW 5 7 1005.4 - 2.8 - Partly cloudy 10 - - - -
25/08:09pm 15.7 CALM 0 0 1005.4 - 2.8 - Partly cloudy 7 - - - -
25/08:00pm 15.7 SSW 2 4 1005.4 - 2.8 - Partly cloudy 6 - - - -
25/07:51pm 15.7 S 1 4 1005.4 - 2.8 - Partly cloudy 5 - - - -
25/07:30pm 16.4 S 3 9 1005.3 - 2.8 - Cloudy 10 - - - -
25/07:00pm 16.2 CALM 0 0 1004.8 - 2.8 - Partly cloudy 10 - - - -
25/06:30pm 16.3 CALM 0 0 1004.3 - 2.8 - Partly cloudy 10 - - - -
25/06:00pm 16.6 CALM 0 0 1004.0 - 2.8 - Cloudy 10 - - - -
25/05:42pm 16.8 CALM 0 0 1003.8 - 2.8 - - 10 - - - -
25/05:30pm 17.1 CALM 0 0 1003.7 - 2.8 - Partly cloudy 2 - - - -
25/05:17pm 17.3 CALM 0 0 1003.6 - 2.8 - Partly cloudy 5 - - - -
25/05:00pm 17.8 WNW 1 4 1003.5 - 2.8 - - 10 - - - -
25/04:30pm 18.0 WNW 4 5 1003.4 - 2.8 - Cloudy 10 - - - -
25/04:00pm 17.9 W 5 6 1002.9 - 2.8 - Partly cloudy 10 - - - -
25/03:30pm 17.9 NW 4 5 1003.2 - 2.8 - Partly cloudy 10 - - - -
25/03:05pm 17.0 WSW 4 7 1004.1 - 2.8 - Partly cloudy 10 - - - -
25/03:00pm 16.9 SW 3 4 1004.1 - 2.6 Recent precip. Cloudy 10 - - - -
25/02:33pm 16.9 SW 5 9 1004.3 - 1.4 - Partly cloudy 5 - - - -
25/02:30pm 16.9 SW 6 9 1004.3 - 1.2 - Partly cloudy 6 - - - -
25/02:25pm 16.9 SW 7 9 1004.3 - 1.2 - Partly cloudy 7 - - - -
25/02:14pm 17.0 SSW 7 11 1004.4 - 1.0 - Partly cloudy 5 - - - -
25/02:00pm 17.0 SW 7 9 1004.4 - 0.6 - Partly cloudy 7 - - - -
25/01:30pm 17.2 CALM 0 0 1004.3 - 0.6 - Partly cloudy 10 - - - -
25/01:00pm 17.6 CALM 0 0 1004.8 - 0.4 - Partly cloudy 10 - - - -
25/12:30pm 17.2 NNE 1 4 1005.5 - 0.4 - Cloudy 10 - - - -
25/12:00pm 16.9 N 2 7 1006.2 - 0.4 Recent precip. Cloudy 10 - - - -
25/11:30am 16.8 CALM 0 0 1006.8 - 0.2 - Partly cloudy 10 - - - -
25/11:00am 16.3 CALM 0 0 1007.2 - 0.0 - Cloudy 10 - - - -
25/10:30am 15.9 CALM 0 0 1007.8 - 0.0 - Cloudy 10 - - - -
25/10:00am 15.8 CALM 0 4 1008.2 - 0.0 - Cloudy 10 - - - -
25/09:30am 15.2 CALM 0 3 1008.5 - 0.0 - Cloudy 10 - - - -
25/09:00am 14.6 CALM 0 4 1008.8 - 0.4 Recent precip. Cloudy 10 - - - -
25/08:30am 14.5 SSW 3 6 1009.2 - 0.4 - Cloudy 10 - - - -
25/08:00am 14.3 SW 1 4 1009.0 - 0.0 - Partly cloudy 10 - - - -
25/07:30am 14.0 CALM 0 0 1009.1 - 0.0 - Cloudy 10 - - - -
25/07:00am 13.5 CALM 0 0 1009.5 - 0.0 - Partly cloudy 10 - - - -
25/06:30am 13.3 WSW 2 5 1009.5 - 0.0 - Partly cloudy 9 - - - -
25/06:00am 13.0 CALM 0 5 1009.7 - 0.0 - Cloudy 8 - - - -
25/05:30am 12.7 SSW 2 4 1009.9 - 0.0 - - 9 - - - -
25/05:00am 13.0 SW 5 7 1010.3 - 0.0 - - 10 - - - -
25/04:30am 12.9 CALM 0 0 1010.6 - 0.0 - Partly cloudy 10 - - - -
25/04:03am 12.8 CALM 0 0 1010.7 - 0.0 - - 5 - - - -
25/04:00am 12.7 CALM 0 0 1010.8 - 0.0 - - 6 - - - -
25/03:30am 13.1 CALM 0 0 1011.2 - 0.0 - - 9 - - - -
25/03:00am 13.3 CALM 0 0 1011.7 - 0.0 - Partly cloudy 10 - - - -
25/02:30am 13.5 CALM 0 0 1012.3 - 0.0 - Cloudy 10 - - - -
25/02:00am 13.5 CALM 0 0 1012.7 - 0.0 - Cloudy 10 - - - -
25/01:30am 13.1 CALM 0 0 1013.3 - 0.0 - Partly cloudy 7 - - - -
25/01:00am 13.4 CALM 0 0 1013.7 - 0.0 - Partly cloudy 8 - - - -
25/12:41am 13.6 CALM 0 0 1014.1 - 0.0 - Partly cloudy 9 - - - -
25/12:30am 13.1 CALM 0 0 1014.2 - 0.0 - Partly cloudy 5 - - - -
25/12:09am 13.4 CALM 0 0 1014.6 - 0.0 - - 5 - - - -
25/12:00am 13.5 CALM 0 0 1014.8 - 0.0 - - 9 - - - -
 
Date/Time
EST
Temp
°C
Wind Pressure Rain since
9am
mm
Weather Cloud Vis
km
Sea
Height
m
Swell
Dir  Spd
kts
Gust
kts
hPa Trend Height
m
Period
s
Dir
24/11:54pm 13.6 CALM 0 0 1014.9 - 0.0 - - 9 - - - -
24/11:38pm 13.5 CALM 0 0 1015.1 - 0.0 - - 5 - - - -
24/11:33pm 13.9 CALM 0 0 1015.1 - 0.0 - - 8 - - - -
24/11:30pm 13.8 CALM 0 0 1015.2 - 0.0 - - 8 - - - -
24/11:20pm 13.4 CALM 0 0 1015.2 - 0.0 - - 5 - - - -
24/11:14pm 13.9 CALM 0 0 1015.3 - 0.0 - Partly cloudy 8 - - - -
24/11:00pm 13.5 CALM 0 3 1015.5 - 0.0 - Partly cloudy 4 - - - -
24/10:38pm 14.1 WSW 2 5 1015.7 - 0.0 - - 5 - - - -
24/10:30pm 14.3 WSW 2 5 1015.8 - 0.0 - - 6 - - - -
24/10:19pm 14.1 CALM 0 0 1015.9 - 0.0 - - 8 - - - -
24/10:03pm 14.1 CALM 0 0 1016.2 - 0.0 - Partly cloudy 5 - - - -
24/10:00pm 14.2 CALM 0 0 1016.2 - 0.0 - Partly cloudy 7 - - - -
24/09:30pm 15.3 NW 4 6 1016.5 - 0.0 - Partly cloudy 10 - - - -
24/09:00pm 15.0 CALM 0 0 1016.4 - 0.0 - - 10 - - - -
24/08:30pm 15.4 CALM 0 0 1016.5 - 0.0 - - 10 - - - -
24/08:00pm 16.5 CALM 0 0 1016.6 - 0.0 - Partly cloudy 10 - - - -
24/07:30pm 16.1 CALM 0 0 1016.7 - 0.0 - Partly cloudy 10 - - - -
24/07:00pm 16.7 CALM 0 0 1016.8 - 0.0 - - 10 - - - -
24/06:30pm 17.1 CALM 0 0 1016.7 - 0.0 - Partly cloudy 10 - - - -
24/06:00pm 18.6 NNE 4 5 1016.5 - 0.0 - - 10 - - - -
24/05:30pm 19.3 NNE 2 5 1016.4 - 0.0 - - 10 - - - -
24/05:00pm 19.9 NE 7 10 1016.3 - 0.0 - - 10 - - - -
24/04:30pm 20.8 NE 8 11 1016.2 - 0.0 - - 10 - - - -
24/04:00pm 21.4 NNE 8 12 1016.2 - 0.0 - - 10 - - - -
24/03:30pm 21.7 NE 9 16 1016.4 - 0.0 - - 10 - - - -
24/03:00pm 22.0 NNE 9 15 1016.5 - 0.0 - - 10 - - - -
24/02:30pm 22.2 NE 9 15 1016.6 - 0.0 - - 10 - - - -
24/02:00pm 22.3 NE 9 15 1017.0 - 0.0 - - 10 - - - -
24/01:30pm 22.2 NE 9 15 1017.4 - 0.0 - - 10 - - - -
24/01:00pm 22.3 NE 8 13 1017.9 - 0.0 - - 10 - - - -
24/12:30pm 22.6 NE 8 11 1018.4 - 0.0 - - 10 - - - -
24/12:00pm 22.3 NE 8 12 1019.1 - 0.0 - - 10 - - - -
24/11:30am 21.9 NE 7 11 1019.8 - 0.0 - - 10 - - - -
24/11:00am 21.9 NNE 5 9 1020.2 - 0.0 - - 10 - - - -
24/10:30am 21.6 ENE 5 9 1020.7 - 0.0 - - 10 - - - -
24/10:00am 20.1 E 4 6 1020.9 - 0.0 - - 10 - - - -
24/09:30am 19.5 E 4 6 1021.1 - 0.0 - - 10 - - - -
24/09:00am 19.0 WNW 3 5 1021.3 - 0.0 - - 10 - - - -
24/08:30am 17.2 CALM 0 3 1021.5 - 0.0 - - 10 - - - -
24/08:00am 16.0 CALM 0 0 1021.7 - 0.0 - - 10 - - - -
24/07:30am 13.6 CALM 0 0 1021.8 - 0.0 - - 10 - - - -
24/07:00am 11.9 CALM 0 0 1021.7 - 0.0 - - 7 - - - -
24/06:57am 11.8 CALM 0 0 1021.7 - 0.0 - - 9 - - - -
24/06:35am 11.5 CALM 0 0 1021.5 - 0.0 - - 5 - - - -
24/06:30am 11.6 CALM 0 0 1021.6 - 0.0 - - 8 - - - -
24/06:00am 12.0 CALM 0 0 1021.4 - 0.0 - - 10 - - - -
24/05:58am 11.9 CALM 0 0 1021.4 - 0.0 - - 9 - - - -
24/05:33am 12.1 CALM 0 0 1021.5 - 0.0 - - 5 - - - -
24/05:30am 12.1 CALM 0 0 1021.5 - 0.0 - - 7 - - - -
24/05:10am 12.1 CALM 0 0 1021.4 - 0.0 - - 9 - - - -
24/05:00am 12.2 CALM 0 0 1021.4 - 0.0 - - 5 - - - -
24/04:30am 12.1 CALM 0 0 1021.4 - 0.0 - - 6 - - - -
24/04:20am 12.4 CALM 0 0 1021.4 - 0.0 - - 5 - - - -
24/04:00am 12.5 CALM 0 0 1021.4 - 0.0 - - 7 - - - -
24/03:58am 12.6 CALM 0 0 1021.4 - 0.0 - - 7 - - - -
24/03:31am 12.5 SSW 1 3 1021.5 - 0.0 - - 5 - - - -
24/03:30am 12.3 SSW 1 4 1021.5 - 0.0 - - 6 - - - -
24/03:00am 13.0 SSW 3 5 1021.5 - 0.0 - - 8 - - - -
24/02:50am 13.2 CALM 0 0 1021.5 - 0.0 - - 10 - - - -
24/02:30am 13.2 CALM 0 0 1021.8 - 0.0 - - 5 - - - -
24/02:15am 13.2 CALM 0 0 1022.0 - 0.0 - - 5 - - - -
24/02:04am 13.3 CALM 0 0 1022.1 - 0.0 - - 8 - - - -
24/02:00am 13.3 CALM 0 0 1022.2 - 0.0 - - 7 - - - -
24/01:45am 13.4 CALM 0 0 1022.3 - 0.0 - - 5 - - - -
24/01:42am 13.3 CALM 0 0 1022.4 - 0.0 - - 7 - - - -
24/01:32am 13.5 CALM 0 0 1022.5 - 0.0 - - 5 - - - -
24/01:30am 13.8 CALM 0 0 1022.5 - 0.0 - - 6 - - - -
24/01:22am 13.7 CALM 0 0 1022.6 - 0.0 - Partly cloudy 7 - - - -
24/01:03am 13.9 CALM 0 0 1022.7 - 0.0 - Partly cloudy 5 - - - -
24/01:00am 14.2 CALM 0 0 1022.8 - 0.0 - Partly cloudy 7 - - - -
24/12:30am 14.4 CALM 0 0 1022.9 - 0.0 - - 10 - - - -
24/12:00am 14.7 WSW 1 4 1023.1 - 0.0 - - 10 - - - -
 
Date/Time
EST
Temp
°C
Wind Pressure Rain since
9am
mm
Weather Cloud Vis
km
Sea
Height
m
Swell
Dir  Spd
kts
Gust
kts
hPa Trend Height
m
Period
s
Dir
23/11:30pm 15.6 NW 5 7 1023.2 - 0.0 - - 8 - - - -
23/11:00pm 15.7 CALM 0 0 1023.4 - 0.0 - Partly cloudy 9 - - - -
23/10:30pm 16.1 CALM 0 0 1023.8 - 0.0 - Partly cloudy 10 - - - -
23/10:00pm 16.2 CALM 0 0 1023.8 - 0.0 - Cloudy 10 - - - -
23/09:30pm 16.4 CALM 0 0 1023.9 - 0.0 - Cloudy 10 - - - -
23/09:00pm 16.9 CALM 0 0 1023.9 - 0.0 - Cloudy 10 - - - -
23/08:30pm 16.8 CALM 0 0 1023.7 - 0.0 - Partly cloudy 10 - - - -
23/08:00pm 16.5 CALM 0 0 1023.5 - 0.0 - Partly cloudy 10 - - - -
23/07:30pm 17.5 CALM 0 0 1023.4 - 0.0 - Partly cloudy 10 - - - -
23/07:00pm 17.8 CALM 0 0 1023.1 - 0.0 - Cloudy 10 - - - -
23/06:30pm 17.9 CALM 0 0 1022.8 - 0.0 - Partly cloudy 10 - - - -
23/06:00pm 18.4 SSW 4 4 1022.6 - 0.0 - Mostly cloudy 10 - - - -
23/05:30pm 19.0 S 4 5 1022.4 - 0.0 - Partly cloudy 10 - - - -
23/05:00pm 19.7 SE 5 7 1022.1 - 0.0 - - 10 - - - -
23/04:30pm 21.0 SE 4 6 1022.0 - 0.0 - - 10 - - - -
23/04:00pm 21.7 ESE 4 6 1022.0 - 0.0 - Partly cloudy 10 - - - -
23/03:30pm 21.6 SE 5 8 1022.0 - 0.0 - - 10 - - - -
23/03:00pm 21.5 ESE 6 8 1021.9 - 0.0 - Mostly cloudy 10 - - - -
23/02:30pm 21.2 ESE 5 7 1022.0 - 0.0 - Cloudy 10 - - - -

Other Formats:

Comma delimited format used in spreadsheet applications
http://www.bom.gov.au/fwo/IDN60701/IDN60701.95929.axf

JavaScript Object Notation format (JSON) in row-major order
http://www.bom.gov.au/fwo/IDN60701/IDN60701.95929.json